createdAt,value
2023-05-17T00:04:29.887Z,20.02
2023-05-17T00:09:30.015Z,19.92
2023-05-17T00:14:29.314Z,19.80
2023-05-17T00:19:28.671Z,19.55
2023-05-17T00:24:28.962Z,19.33
2023-05-17T00:29:28.264Z,19.16
2023-05-17T00:34:26.638Z,18.88
2023-05-17T00:39:24.718Z,18.82
2023-05-17T00:44:25.012Z,19.31
2023-05-17T00:49:23.344Z,18.72
2023-05-17T00:54:22.642Z,18.57
2023-05-17T00:59:22.934Z,18.44
2023-05-17T01:04:22.284Z,18.33
2023-05-17T01:09:20.375Z,18.11
2023-05-17T01:14:20.698Z,18.03
2023-05-17T01:19:19.135Z,18.08
2023-05-17T01:24:18.281Z,17.87
2023-05-17T01:29:17.582Z,17.79
2023-05-17T01:34:17.895Z,17.68
2023-05-17T01:39:16.196Z,17.64
2023-05-17T01:44:17.500Z,17.66
2023-05-17T01:49:15.765Z,17.58
2023-05-17T01:54:15.114Z,17.58
2023-05-17T01:59:13.400Z,17.37
2023-05-17T02:04:12.744Z,17.28
2023-05-17T02:09:12.843Z,17.34
2023-05-17T02:14:11.129Z,17.25
2023-05-17T02:19:11.533Z,17.14
2023-05-17T02:24:09.638Z,17.11
2023-05-17T02:29:08.957Z,16.97
2023-05-17T02:34:09.253Z,16.96
2023-05-17T02:39:08.558Z,16.81
2023-05-17T02:44:08.845Z,16.93
2023-05-17T02:49:07.150Z,16.93
2023-05-17T02:54:06.500Z,16.86
2023-05-17T02:59:05.605Z,16.94
2023-05-17T03:04:04.127Z,16.70
2023-05-17T03:09:05.210Z,16.83
2023-05-17T03:14:03.526Z,16.56
2023-05-17T03:19:02.024Z,16.49
2023-05-17T03:24:01.100Z,16.57
2023-05-17T03:29:00.435Z,16.49
2023-05-17T03:33:59.813Z,16.42
2023-05-17T03:38:58.990Z,16.42
2023-05-17T03:43:58.338Z,16.33
2023-05-17T03:48:58.652Z,16.39
2023-05-17T03:53:56.932Z,16.34
2023-05-17T03:58:56.275Z,16.66
2023-05-17T04:03:57.622Z,16.56
2023-05-17T04:08:54.869Z,16.61
2023-05-17T04:13:55.173Z,16.63
2023-05-17T04:18:53.588Z,16.52
2023-05-17T04:23:54.792Z,16.56
2023-05-17T04:28:52.071Z,16.53
2023-05-17T04:33:51.475Z,16.41
2023-05-17T04:38:50.570Z,16.39
2023-05-17T04:43:49.878Z,16.45
2023-05-17T04:48:48.360Z,16.43
2023-05-17T04:53:49.360Z,16.38
2023-05-17T04:58:48.947Z,16.46
2023-05-17T05:03:46.896Z,16.63
2023-05-17T05:08:46.033Z,16.61
2023-05-17T05:13:44.480Z,16.61
2023-05-17T05:18:46.718Z,16.53
2023-05-17T05:23:43.866Z,16.43
2023-05-17T05:28:45.238Z,16.39
2023-05-17T05:33:42.428Z,16.35
2023-05-17T05:38:41.609Z,16.45
2023-05-17T05:43:40.908Z,16.38
2023-05-17T05:48:40.295Z,16.46
2023-05-17T05:53:39.435Z,16.46
2023-05-17T05:58:38.774Z,16.53
2023-05-17T06:03:40.074Z,16.48
2023-05-17T06:08:37.352Z,16.31
2023-05-17T06:13:36.669Z,16.27
2023-05-17T06:18:36.993Z,16.20
2023-05-17T06:23:35.133Z,16.43
2023-05-17T06:28:33.451Z,16.30
2023-05-17T06:33:34.784Z,16.39
2023-05-17T06:38:33.115Z,16.60
2023-05-17T06:43:35.805Z,16.79
2023-05-17T06:48:31.689Z,16.94
2023-05-17T06:53:30.925Z,17.08
2023-05-17T06:58:30.374Z,17.26
2023-05-17T07:03:29.669Z,17.18
2023-05-17T07:08:28.809Z,17.23
2023-05-17T07:13:27.132Z,17.37
2023-05-17T07:18:26.393Z,17.40
2023-05-17T07:23:26.519Z,17.62
2023-05-17T07:28:25.846Z,17.49
2023-05-17T07:33:24.169Z,17.41
2023-05-17T07:38:25.513Z,17.38
2023-05-17T07:43:24.829Z,17.48
2023-05-17T07:48:24.277Z,17.44
2023-05-17T07:53:22.418Z,17.34
2023-05-17T07:58:23.758Z,17.28
2023-05-17T08:03:21.121Z,17.16
2023-05-17T08:08:21.283Z,17.06
2023-05-17T08:13:20.426Z,17.19
2023-05-17T08:18:19.856Z,17.63
2023-05-17T08:23:17.983Z,18.21
2023-05-17T08:28:18.296Z,18.23
2023-05-17T08:33:18.640Z,18.47
2023-05-17T08:38:16.685Z,18.44
2023-05-17T08:43:17.050Z,18.62
2023-05-17T08:48:14.391Z,18.54
2023-05-17T08:53:13.640Z,18.69
2023-05-17T08:58:12.784Z,18.60
2023-05-17T09:03:11.197Z,18.70
2023-05-17T09:08:12.294Z,18.84
2023-05-17T09:13:11.576Z,18.72
2023-05-17T09:18:09.942Z,18.51
2023-05-17T09:23:09.047Z,18.48
2023-05-17T09:28:12.377Z,18.37
2023-05-17T09:33:07.675Z,18.37
2023-05-17T09:38:08.013Z,18.35
2023-05-17T09:43:07.282Z,18.36
2023-05-17T09:48:07.772Z,18.37
2023-05-17T09:53:03.901Z,18.25
2023-05-17T09:58:04.228Z,18.23
2023-05-17T10:03:03.591Z,18.23
2023-05-17T10:08:02.725Z,18.11
2023-05-17T10:13:02.069Z,18.08
2023-05-17T10:18:03.392Z,18.26
2023-05-17T10:23:01.365Z,18.57
2023-05-17T10:27:59.657Z,19.19
2023-05-17T10:33:00.102Z,19.80
2023-05-17T10:37:57.331Z,19.99
2023-05-17T10:42:59.458Z,20.18
2023-05-17T10:47:59.006Z,20.08
2023-05-17T10:52:54.942Z,20.13
2023-05-17T10:57:55.229Z,20.16
2023-05-17T11:02:55.530Z,19.96
2023-05-17T11:07:53.778Z,19.80
2023-05-17T11:12:54.979Z,19.78
2023-05-17T11:17:52.199Z,19.77
2023-05-17T11:22:51.403Z,19.68
2023-05-17T11:27:51.650Z,19.43
2023-05-17T11:32:49.921Z,19.44
2023-05-17T11:37:51.168Z,19.44
2023-05-17T11:42:49.393Z,19.29
2023-05-17T11:47:47.701Z,19.29
2023-05-17T11:52:48.951Z,19.29
2023-05-17T11:57:47.181Z,19.21
2023-05-17T12:02:45.465Z,19.02
2023-05-17T12:07:44.694Z,19.00
2023-05-17T12:12:43.927Z,18.94
2023-05-17T12:17:44.211Z,18.91
2023-05-17T12:22:42.469Z,19.02
2023-05-17T12:27:41.785Z,18.90
2023-05-17T12:32:41.150Z,18.80
2023-05-17T12:37:41.243Z,18.72
2023-05-17T12:42:39.499Z,18.62
2023-05-17T12:47:38.874Z,18.88
2023-05-17T12:52:40.104Z,19.21
2023-05-17T12:57:37.302Z,19.32
2023-05-17T13:02:38.777Z,19.55
2023-05-17T13:07:36.891Z,19.66
2023-05-17T13:12:36.440Z,19.63
2023-05-17T13:17:34.375Z,19.76
2023-05-17T13:22:33.617Z,19.76
2023-05-17T13:27:32.882Z,19.63
2023-05-17T13:32:31.232Z,19.46
2023-05-17T13:37:31.337Z,19.50
2023-05-17T13:42:30.591Z,19.47
2023-05-17T13:47:29.959Z,19.46
2023-05-17T13:52:30.159Z,19.55
2023-05-17T13:57:28.393Z,19.39
2023-05-17T14:02:27.629Z,19.26
2023-05-17T14:07:26.960Z,19.31
2023-05-17T14:12:26.243Z,19.14
2023-05-17T14:17:24.497Z,19.23
2023-05-17T14:22:24.792Z,19.13
2023-05-17T14:27:24.067Z,19.11
2023-05-17T14:32:23.341Z,19.08
2023-05-17T14:37:24.604Z,19.02
2023-05-17T14:42:21.840Z,19.11
2023-05-17T14:47:21.104Z,19.08
2023-05-17T14:52:20.400Z,19.00
2023-05-17T14:57:19.664Z,19.32
2023-05-17T15:02:19.004Z,19.40
2023-05-17T15:07:20.251Z,19.39
2023-05-17T15:12:17.452Z,19.65
2023-05-17T15:17:16.707Z,19.69
2023-05-17T15:22:15.244Z,19.62
2023-05-17T15:27:17.105Z,19.95
2023-05-17T15:32:14.372Z,20.10
2023-05-17T15:37:14.623Z,19.94
2023-05-17T15:42:13.850Z,19.84
2023-05-17T15:47:12.095Z,20.08
2023-05-17T15:52:12.422Z,20.05
2023-05-17T15:57:10.709Z,19.74
2023-05-17T16:02:10.062Z,19.56
2023-05-17T16:07:10.234Z,19.55
2023-05-17T16:12:09.316Z,19.31
2023-05-17T16:17:07.571Z,19.23
2023-05-17T16:22:06.896Z,19.02
2023-05-17T16:27:08.093Z,18.87
2023-05-17T16:32:05.572Z,18.80
2023-05-17T16:37:04.911Z,18.80
2023-05-17T16:42:04.968Z,18.65
2023-05-17T16:47:03.352Z,18.72
2023-05-17T16:52:02.559Z,18.55
2023-05-17T16:57:00.725Z,18.57
2023-05-17T17:02:02.015Z,18.50
2023-05-17T17:07:01.191Z,18.58
2023-05-17T17:12:02.912Z,18.44
2023-05-17T17:16:59.592Z,18.54
2023-05-17T17:21:57.865Z,18.51
2023-05-17T17:26:58.187Z,18.58
2023-05-17T17:31:58.447Z,18.50
2023-05-17T17:36:56.711Z,18.48
2023-05-17T17:41:55.972Z,18.45
2023-05-17T17:46:54.127Z,18.41
2023-05-17T17:51:53.418Z,18.29
2023-05-17T17:56:53.684Z,18.48
2023-05-17T18:01:51.982Z,18.36
2023-05-17T18:06:51.046Z,18.36
2023-05-17T18:11:50.332Z,18.25
2023-05-17T18:16:50.675Z,18.42
2023-05-17T18:21:49.795Z,17.87
2023-05-17T18:26:48.048Z,18.12
2023-05-17T18:31:47.437Z,18.39
2023-05-17T18:36:46.449Z,19.28
2023-05-17T18:41:46.718Z,20.06
2023-05-17T18:46:46.003Z,20.69
2023-05-17T18:51:44.299Z,21.14
2023-05-17T18:56:44.584Z,21.50
2023-05-17T19:01:44.831Z,21.86
2023-05-17T19:06:41.983Z,22.18
2023-05-17T19:12:02.259Z,22.35
2023-05-17T19:16:41.428Z,22.58
2023-05-17T19:21:40.686Z,22.94
2023-05-17T19:26:39.888Z,22.88
2023-05-17T19:31:38.186Z,22.92
2023-05-17T19:36:38.383Z,22.80
2023-05-17T19:41:36.575Z,22.94
2023-05-17T19:46:35.852Z,23.35
2023-05-17T19:51:35.079Z,23.70
2023-05-17T19:56:35.356Z,23.69
2023-05-17T20:01:34.856Z,23.63
2023-05-17T20:06:32.809Z,23.80
2023-05-17T20:11:33.039Z,23.78
2023-05-17T20:16:31.380Z,23.73
2023-05-17T20:21:30.629Z,23.75
2023-05-17T20:26:29.927Z,23.84
2023-05-17T20:31:30.251Z,23.66
2023-05-17T20:36:28.362Z,23.98
2023-05-17T20:41:28.553Z,23.78
2023-05-17T20:46:28.809Z,24.09
2023-05-17T20:51:27.036Z,23.91
2023-05-17T20:56:27.290Z,24.22
2023-05-17T21:01:24.036Z,23.78
2023-05-17T21:06:23.274Z,24.05
2023-05-17T21:11:22.505Z,24.21
2023-05-17T21:16:22.809Z,24.25
2023-05-17T21:21:22.033Z,24.34
2023-05-17T21:26:21.268Z,24.21
2023-05-17T21:31:19.584Z,24.57
2023-05-17T21:36:19.702Z,24.30
2023-05-17T21:41:17.961Z,24.69
2023-05-17T21:46:17.335Z,24.25
2023-05-17T21:51:16.353Z,24.69
2023-05-17T21:56:15.646Z,24.20
2023-05-17T22:01:14.877Z,24.43
2023-05-17T22:06:15.164Z,24.20
2023-05-17T22:11:15.397Z,23.87
2023-05-17T22:16:12.795Z,23.53
2023-05-17T22:21:11.890Z,23.95
2023-05-17T22:26:11.204Z,24.03
2023-05-17T22:31:10.540Z,23.60
2023-05-17T22:36:10.835Z,22.95
2023-05-17T22:41:09.128Z,23.93
2023-05-17T22:46:10.474Z,24.03
2023-05-17T22:51:08.771Z,24.20
2023-05-17T22:56:07.080Z,23.97
2023-05-17T23:01:06.444Z,24.09
2023-05-17T23:06:05.533Z,24.49
2023-05-17T23:11:04.869Z,24.53
2023-05-17T23:16:04.237Z,24.61
2023-05-17T23:21:03.376Z,24.43
2023-05-17T23:26:02.672Z,23.75
2023-05-17T23:31:02.200Z,22.94
2023-05-17T23:36:01.210Z,22.52
2023-05-17T23:41:01.537Z,22.22
2023-05-17T23:46:00.857Z,21.74
2023-05-17T23:50:59.987Z,21.37
2023-05-17T23:55:58.311Z,21.09
